.
WxDataArchive / Data Records for 2015-09-30
2015-09-29 September 2015 2015-10-01

Data Records for Wednesday, 30 September 2015

Time	Temp	Chill	HIndex	Humid	Dewpt	 Wind 	HiWind	WindDir	Rain 	Barom
-----	----	-----	------	-----	-----	------	------	-------	-----	-----
00:00	59.8	59.8	59.8	75	51.9	1	6	112	0.00	29.987 
00:05	59.6	59.6	59.6	75	51.7	1	6	0	0.00	29.987 
00:10	59.6	59.6	59.6	75	51.7	1	3	292	0.00	29.987 
00:15	59.5	59.5	59.5	75	51.6	0	5	112	0.00	29.989 
00:20	59.5	59.5	59.5	75	51.6	1	6	90	0.00	29.989 
00:25	59.3	59.3	59.3	74	51.0	2	5	112	0.00	29.989 
00:30	59.0	59.0	59.0	73	50.4	1	6	90	0.00	29.996 
00:35	59.0	59.0	59.0	72	50.0	1	5	90	0.00	29.996 
00:40	58.9	58.9	58.9	73	50.3	1	4	135	0.00	29.996 
00:45	58.9	58.9	58.9	73	50.3	1	5	135	0.00	29.995 
00:50	58.6	58.6	58.6	73	50.0	0	2	90	0.00	29.995 
00:55	58.4	58.4	58.4	73	49.8	1	5	112	0.00	29.995 
01:00	58.3	58.3	58.3	73	49.7	1	4	135	0.00	29.999 
01:05	58.1	58.1	58.1	73	49.5	0	2	158	0.00	29.999 
01:10	58.1	58.1	58.1	73	49.5	1	6	315	0.00	29.999 
01:15	58.0	58.0	58.0	73	49.4	2	6	112	0.00	29.998 
01:20	57.8	57.8	57.8	73	49.2	0	3	45	0.00	29.998 
01:25	57.8	57.8	57.8	73	49.2	1	4	68	0.00	29.998 
01:30	57.6	57.6	57.6	73	49.0	0	2	0	0.00	29.997 
01:35	57.6	57.6	57.6	73	49.0	0	3	112	0.00	29.997 
01:40	57.5	57.5	57.5	74	49.3	1	7	90	0.00	29.997 
01:45	57.5	57.5	57.5	74	49.3	0	3	112	0.00	29.996 
01:50	57.3	57.3	57.3	74	49.1	1	5	112	0.00	29.996 
01:55	57.2	57.2	57.2	74	49.0	1	4	0	0.00	29.996 
02:00	57.2	57.2	57.2	75	49.3	0	5	112	0.00	29.995 
02:05	56.9	56.9	56.9	75	49.1	1	5	90	0.00	29.995 
02:10	56.7	56.7	56.7	76	49.2	0	3	90	0.00	29.995 
02:15	56.6	56.6	56.6	76	49.1	0	4	90	0.00	29.995 
02:20	56.6	56.6	56.6	76	49.1	0	4	90	0.00	29.995 
02:25	56.5	56.5	56.5	77	49.4	0	4	158	0.00	29.995 
02:30	56.3	56.3	56.3	77	49.2	0	1	135	0.00	29.996 
02:35	56.2	56.2	56.2	77	49.1	1	6	135	0.00	29.996 
02:40	56.2	56.2	56.2	77	49.1	0	1	158	0.00	29.996 
02:45	56.2	56.2	56.2	77	49.1	0	1	158	0.00	29.998 
02:50	56.0	56.0	56.0	77	48.9	0	2	158	0.00	29.998 
02:55	56.0	56.0	56.0	77	48.9	0	1	270	0.00	29.998 
03:00	56.0	56.0	56.0	77	48.9	0	4	0	0.00	29.998 
03:05	55.9	55.9	55.9	77	48.8	1	6	0	0.00	29.998 
03:10	55.9	55.9	55.9	77	48.8	0	3	338	0.00	29.998 
03:15	55.7	55.7	55.7	77	48.6	1	3	270	0.00	29.997 
03:20	55.7	55.7	55.7	78	48.9	0	2	270	0.00	29.997 
03:25	55.7	55.7	55.7	78	48.9	0	5	158	0.00	29.997 
03:30	55.6	55.6	55.6	78	48.8	0	2	135	0.00	29.997 
03:35	55.4	55.4	55.4	78	48.7	0	3	135	0.00	29.997 
03:40	55.4	55.4	55.4	79	49.0	1	5	292	0.00	29.997 
03:45	55.3	55.3	55.3	79	48.9	0	2	315	0.00	29.997 
03:50	55.1	55.1	55.1	79	48.7	0	3	315	0.00	29.997 
03:55	55.1	55.1	55.1	79	48.7	0	3	315	0.00	29.997 
04:00	55.0	55.0	55.0	79	48.6	0	2	315	0.00	29.997 
04:05	54.8	54.8	54.8	79	48.4	0	5	315	0.00	29.997 
04:10	54.7	54.7	54.7	79	48.3	0	2	45	0.00	29.997 
04:15	54.5	54.5	54.5	79	48.1	1	5	112	0.00	30.003 
04:20	54.5	54.5	54.5	79	48.1	0	1	112	0.00	30.003 
04:25	54.4	54.4	54.4	79	48.0	0	4	292	0.00	30.003 
04:30	54.2	54.2	54.2	79	47.8	0	3	112	0.00	30.003 
04:35	54.1	54.1	54.1	79	47.7	1	6	315	0.00	30.003 
04:40	54.1	54.1	54.1	79	47.7	0	3	315	0.00	30.003 
04:45	53.9	53.9	53.9	80	47.9	0	1	315	0.00	30.004 
04:50	53.9	53.9	53.9	80	47.9	0	2	315	0.00	30.004 
04:55	53.8	53.8	53.8	80	47.8	0	2	315	0.00	30.004 
05:00	53.6	53.6	53.6	80	47.6	0	3	338	0.00	30.005 
05:05	53.6	53.6	53.6	80	47.6	0	3	338	0.00	30.005 
05:10	53.5	53.5	53.5	80	47.5	0	3	338	0.00	30.005 
05:15	53.3	53.3	53.3	80	47.3	0	3	338	0.00	30.008 
05:20	53.2	53.2	53.2	81	47.5	0	2	338	0.00	30.008 
05:25	53.1	53.1	53.1	81	47.4	0	2	338	0.00	30.008 
05:30	52.9	52.9	52.9	81	47.2	0	3	338	0.00	30.010 
05:35	52.8	52.8	52.8	81	47.1	0	2	338	0.00	30.010 
05:40	52.5	52.5	52.5	81	46.8	0	3	338	0.00	30.010 
05:45	52.3	52.3	52.3	82	47.0	0	2	0	0.00	30.010 
05:50	52.0	52.0	52.0	82	46.7	0	4	292	0.00	30.010 
05:55	51.9	51.9	51.9	82	46.6	0	2	292	0.00	30.010 
06:00	51.7	51.7	51.7	83	46.7	0	3	292	0.00	30.016 
06:05	51.6	51.6	51.6	83	46.6	1	5	315	0.00	30.016 
06:10	51.3	51.3	51.3	83	46.3	1	5	315	0.00	30.016 
06:15	51.1	51.1	51.1	83	46.1	0	3	315	0.00	30.024 
06:20	51.0	51.0	51.0	83	46.0	1	3	315	0.00	30.024 
06:25	50.8	50.8	50.8	84	46.1	0	2	315	0.00	30.024 
06:30	50.7	50.7	50.7	84	46.0	1	4	292	0.00	30.025 
06:35	50.7	50.7	50.7	84	46.0	0	2	292	0.00	30.025 
06:40	50.5	50.5	50.5	84	45.8	0	2	292	0.00	30.025 
06:45	50.4	50.4	50.4	84	45.7	1	6	315	0.00	30.028 
06:50	50.4	50.4	50.4	84	45.7	0	3	338	0.00	30.028 
06:55	50.2	50.2	50.2	84	45.6	1	5	338	0.00	30.028 
07:00	50.1	50.1	50.1	84	45.5	0	2	338	0.00	30.034 
07:05	49.9	49.9	49.9	84	45.3	0	2	338	0.00	30.034 
07:10	49.9	49.9	49.9	85	45.6	0	4	338	0.00	30.034 
07:15	49.8	49.8	49.8	85	45.5	0	2	338	0.00	30.040 
07:20	49.6	49.6	49.6	85	45.3	0	3	338	0.00	30.040 
07:25	49.5	49.5	49.5	85	45.2	0	3	338	0.00	30.040 
07:30	49.5	49.5	49.5	85	45.2	0	4	315	0.00	30.043 
07:35	49.4	49.4	49.4	85	45.1	1	4	270	0.00	30.043 
07:40	49.4	49.4	49.4	85	45.1	1	4	270	0.00	30.043 
07:45	49.2	49.2	49.2	85	44.9	1	3	270	0.00	30.052 
07:50	49.2	49.2	49.2	86	45.2	1	4	270	0.00	30.052 
07:55	49.1	49.1	49.1	86	45.1	0	4	292	0.00	30.052 
08:00	49.1	49.1	49.1	86	45.1	0	5	315	0.00	30.056 
08:05	49.1	49.1	49.1	86	45.1	0	2	315	0.00	30.056 
08:10	49.1	49.1	49.1	86	45.1	0	1	315	0.00	30.056 
08:15	49.1	49.1	49.1	86	45.1	0	2	315	0.00	30.061 
08:20	49.1	49.1	49.1	86	45.1	0	2	315	0.00	30.061 
08:25	49.1	49.1	49.1	86	45.1	0	2	315	0.00	30.061 
08:30	49.1	49.1	49.1	86	45.1	0	3	45	0.00	30.065 
08:35	49.2	49.2	49.2	86	45.2	0	4	0	0.00	30.065 
08:40	49.2	49.2	49.2	86	45.2	1	5	135	0.00	30.065 
08:45	49.5	49.5	49.5	86	45.5	0	4	135	0.00	30.069 
08:50	49.8	49.8	49.8	86	45.8	0	1	338	0.00	30.069 
08:55	50.1	50.1	50.1	85	45.8	0	4	338	0.00	30.069 
09:00	50.4	50.4	50.4	84	45.7	1	5	90	0.00	30.071 
09:05	50.7	50.7	50.7	84	46.0	1	7	90	0.00	30.071 
09:10	51.0	51.0	51.0	83	46.0	1	5	135	0.00	30.071 
09:15	51.3	51.3	51.3	82	46.0	1	6	90	0.00	30.072 
09:20	51.7	51.7	51.7	81	46.1	1	5	112	0.00	30.072 
09:25	52.0	52.0	52.0	81	46.4	1	11	90	0.00	30.072 
09:30	52.5	52.5	52.5	80	46.5	1	6	135	0.00	30.073 
09:35	52.6	52.6	52.6	79	46.3	1	7	90	0.00	30.073 
09:40	52.9	52.9	52.9	79	46.6	2	10	90	0.00	30.073 
09:45	53.2	53.2	53.2	78	46.5	1	9	112	0.00	30.080 
09:50	53.6	53.6	53.6	78	46.9	1	7	45	0.00	30.080 
09:55	53.9	53.9	53.9	77	46.9	1	7	90	0.00	30.080 
10:00	54.2	54.2	54.2	77	47.1	2	6	112	0.00	30.085 
10:05	54.5	54.5	54.5	76	47.1	1	5	112	0.00	30.085 
10:10	55.0	55.0	55.0	75	47.2	1	5	112	0.00	30.085 
10:15	55.3	55.3	55.3	75	47.5	2	6	90	0.00	30.087 
10:20	55.6	55.6	55.6	74	47.4	2	6	90	0.00	30.087 
10:25	56.2	56.2	56.2	74	48.0	2	6	90	0.00	30.087 
10:30	56.6	56.6	56.6	72	47.7	2	6	90	0.00	30.087 
10:35	57.0	57.0	57.0	71	47.7	1	4	90	0.00	30.087 
10:40	57.5	57.5	57.5	70	47.8	2	9	90	0.00	30.087 
10:45	58.1	58.1	58.1	69	48.0	1	5	90	0.00	30.085 
10:50	58.6	58.6	58.6	69	48.5	1	6	135	0.00	30.085 
10:55	58.9	58.9	58.9	68	48.4	1	5	90	0.00	30.085 
11:00	59.2	59.2	59.2	68	48.6	1	5	90	0.00	30.085 
11:05	59.3	59.3	59.3	67	48.3	2	5	112	0.00	30.085 
11:10	59.8	59.8	59.8	67	48.8	2	6	90	0.00	30.085 
11:15	60.2	60.2	60.2	65	48.4	2	5	112	0.00	30.084 
11:20	60.7	60.7	60.7	66	49.3	1	5	90	0.00	30.084 
11:25	61.2	61.2	61.2	64	48.9	1	7	90	0.00	30.084 
11:30	61.6	61.6	61.6	65	49.7	1	4	112	0.00	30.082 
11:35	62.0	62.0	62.0	64	49.7	1	4	68	0.00	30.082 
11:40	62.1	62.1	62.1	64	49.8	1	9	68	0.00	30.082 
11:45	62.4	62.4	62.4	63	49.6	1	5	22	0.00	30.081 
11:50	62.7	62.7	62.7	61	49.1	2	6	112	0.00	30.081 
11:55	62.7	62.7	62.7	60	48.6	2	6	68	0.00	30.081 
12:00	62.6	62.6	62.6	61	49.0	1	5	135	0.00	30.083 
12:05	62.9	62.9	62.9	59	48.3	2	8	68	0.00	30.083 
12:10	62.9	62.9	62.9	61	49.2	2	7	90	0.00	30.083 
12:15	62.9	62.9	62.9	61	49.2	1	3	90	0.00	30.085 
12:20	63.4	63.4	63.4	62	50.1	2	7	112	0.00	30.085 
12:25	63.5	63.5	63.5	59	48.9	1	5	112	0.00	30.085 
12:30	63.5	63.5	63.5	59	48.9	2	7	112	0.00	30.085 
12:35	63.7	63.7	63.7	60	49.5	1	6	90	0.00	30.085 
12:40	64.0	64.0	64.0	58	48.9	2	6	90	0.00	30.085 
12:45	64.2	64.2	64.2	58	49.1	2	8	90	0.00	30.083 
12:50	64.2	64.2	64.2	58	49.1	2	6	90	0.00	30.083 
12:55	64.7	64.7	64.7	59	50.0	0	4	90	0.00	30.083 
13:00	64.7	64.7	64.7	56	48.6	2	4	112	0.00	30.083 
13:05	65.0	65.0	65.0	56	48.9	1	4	90	0.00	30.083 
13:10	65.2	65.2	65.2	57	49.6	2	7	90	0.00	30.083 
13:15	65.0	65.0	65.0	54	47.9	1	5	135	0.00	30.087 
13:20	64.8	64.8	64.8	54	47.8	1	5	112	0.00	30.087 
13:25	64.5	64.5	64.5	54	47.5	2	5	90	0.00	30.087 
13:30	64.7	64.7	64.7	53	47.2	2	5	112	0.00	30.083 
13:35	65.0	65.0	65.0	53	47.4	1	5	112	0.00	30.083 
13:40	65.5	65.5	65.5	51	46.9	2	7	90	0.00	30.083 
13:45	65.5	65.5	65.5	51	46.9	2	5	90	0.00	30.083 
13:50	65.5	65.5	65.5	53	47.9	1	7	90	0.00	30.083 
13:55	65.3	65.3	65.3	50	46.2	2	9	338	0.00	30.083 
14:00	65.0	65.0	65.0	50	45.9	2	5	68	0.00	30.081 
14:05	65.0	65.0	65.0	52	46.9	2	7	45	0.00	30.081 
14:10	65.5	65.5	65.5	51	46.9	1	4	68	0.00	30.081 
14:15	65.6	65.6	65.6	50	46.5	1	9	68	0.00	30.080 
14:20	66.0	66.0	66.0	48	45.7	2	5	90	0.00	30.080 
14:25	65.6	65.6	65.6	49	45.9	1	4	90	0.00	30.080 
14:30	65.2	65.2	65.2	48	45.0	1	5	292	0.00	30.078 
14:35	65.2	65.2	65.2	47	44.5	2	7	292	0.00	30.078 
14:40	65.3	65.3	65.3	48	45.1	1	8	68	0.00	30.078 
14:45	65.5	65.5	65.5	47	44.7	2	6	90	0.00	30.075 
14:50	65.5	65.5	65.5	49	45.8	1	4	45	0.00	30.075 
14:55	65.6	65.6	65.6	47	44.8	2	6	90	0.00	30.075 
15:00	65.3	65.3	65.3	45	43.4	2	5	338	0.00	30.072 
15:05	65.5	65.5	65.5	46	44.2	1	5	90	0.00	30.072 
15:10	65.6	65.6	65.6	46	44.3	1	6	90	0.00	30.072 
15:15	65.8	65.8	65.8	48	45.6	1	7	270	0.00	30.076 
15:20	65.8	65.8	65.8	47	45.0	1	5	112	0.00	30.076 
15:25	65.6	65.6	65.6	46	44.3	1	7	90	0.00	30.076 
15:30	65.6	65.6	65.6	46	44.3	2	6	45	0.00	30.073 
15:35	65.6	65.6	65.6	45	43.7	1	5	112	0.00	30.073 
15:40	65.6	65.6	65.6	45	43.7	1	4	112	0.00	30.073 
15:45	65.3	65.3	65.3	46	44.0	1	6	112	0.00	30.072 
15:50	65.0	65.0	65.0	47	44.3	1	5	90	0.00	30.072 
15:55	65.0	65.0	65.0	45	43.1	1	5	90	0.00	30.072 
16:00	65.3	65.3	65.3	47	44.5	1	7	112	0.00	30.073 
16:05	65.3	65.3	65.3	46	44.0	1	5	90	0.00	30.073 
16:10	65.3	65.3	65.3	47	44.5	1	6	135	0.00	30.073 
16:15	65.3	65.3	65.3	48	45.1	1	5	90	0.00	30.075 
16:20	65.5	65.5	65.5	49	45.8	1	4	112	0.00	30.075 
16:25	65.5	65.5	65.5	46	44.2	1	6	112	0.00	30.075 
16:30	65.5	65.5	65.5	48	45.3	1	5	90	0.00	30.072 
16:35	65.5	65.5	65.5	46	44.2	2	6	90	0.00	30.072 
16:40	65.2	65.2	65.2	46	43.9	1	4	90	0.00	30.072 
16:45	65.0	65.0	65.0	45	43.1	1	4	315	0.00	30.079 
16:50	64.8	64.8	64.8	46	43.5	1	4	90	0.00	30.079 
16:55	65.0	65.0	65.0	46	43.7	1	5	112	0.00	30.079 
17:00	64.8	64.8	64.8	45	43.0	1	4	112	0.00	30.081 
17:05	64.3	64.3	64.3	45	42.5	1	5	112	0.00	30.081 
17:10	64.0	64.0	64.0	46	42.8	1	4	90	0.00	30.081 
17:15	64.2	64.2	64.2	47	43.5	2	7	112	0.00	30.086 
17:20	64.2	64.2	64.2	47	43.5	1	4	112	0.00	30.086 
17:25	64.3	64.3	64.3	46	43.1	1	5	112	0.00	30.086 
17:30	64.3	64.3	64.3	46	43.1	1	5	112	0.00	30.086 
17:35	64.3	64.3	64.3	45	42.5	1	5	270	0.00	30.086 
17:40	64.3	64.3	64.3	46	43.1	1	6	68	0.00	30.086 
17:45	64.3	64.3	64.3	46	43.1	1	7	112	0.00	30.086 
17:50	64.2	64.2	64.2	47	43.5	1	5	90	0.00	30.086 
17:55	64.2	64.2	64.2	46	43.0	1	6	90	0.00	30.086 
18:00	64.0	64.0	64.0	46	42.8	1	7	22	0.00	30.085 
18:05	63.9	63.9	63.9	46	42.7	1	5	90	0.00	30.085 
18:10	63.9	63.9	63.9	47	43.3	1	4	68	0.00	30.085 
18:15	63.7	63.7	63.7	46	42.5	1	4	68	0.00	30.088 
18:20	63.5	63.5	63.5	46	42.3	1	5	90	0.00	30.088 
18:25	63.4	63.4	63.4	48	43.4	0	2	90	0.00	30.088 
18:30	63.2	63.2	63.2	48	43.2	0	4	90	0.00	30.091 
18:35	63.1	63.1	63.1	48	43.1	1	5	112	0.00	30.091 
18:40	63.1	63.1	63.1	49	43.6	1	3	112	0.00	30.091 
18:45	62.9	62.9	62.9	50	44.0	0	2	112	0.00	30.091 
18:50	62.7	62.7	62.7	50	43.8	1	4	112	0.00	30.091 
18:55	62.6	62.6	62.6	50	43.7	0	3	112	0.00	30.091 
19:00	62.4	62.4	62.4	50	43.5	1	3	112	0.00	30.095 
19:05	62.1	62.1	62.1	51	43.8	1	4	112	0.00	30.095 
19:10	61.8	61.8	61.8	51	43.5	0	2	135	0.00	30.095 
19:15	61.6	61.6	61.6	51	43.3	0	4	112	0.00	30.096 
19:20	61.3	61.3	61.3	52	43.5	0	1	112	0.00	30.096 
19:25	60.9	60.9	60.9	53	43.7	0	5	112	0.00	30.096 
19:30	60.7	60.7	60.7	53	43.5	0	4	112	0.00	30.101 
19:35	60.4	60.4	60.4	54	43.7	0	3	112	0.00	30.101 
19:40	60.2	60.2	60.2	54	43.5	0	3	112	0.00	30.101 
19:45	59.9	59.9	59.9	54	43.2	0	4	112	0.00	30.106 
19:50	59.8	59.8	59.8	54	43.1	1	5	90	0.00	30.106 
19:55	59.6	59.6	59.6	54	42.9	0	1	112	0.00	30.106 
20:00	59.3	59.3	59.3	54	42.7	0	3	112	0.00	30.109 
20:05	59.2	59.2	59.2	54	42.6	1	5	112	0.00	30.109 
20:10	59.2	59.2	59.2	54	42.6	1	5	90	0.00	30.109 
20:15	59.0	59.0	59.0	54	42.4	0	2	90	0.00	30.112 
20:20	58.9	58.9	58.9	54	42.3	0	4	90	0.00	30.112 
20:25	58.6	58.6	58.6	55	42.5	0	1	90	0.00	30.112 
20:30	58.3	58.3	58.3	56	42.7	0	1	90	0.00	30.115 
20:35	58.0	58.0	58.0	57	42.9	0	2	90	0.00	30.115 
20:40	57.8	57.8	57.8	57	42.7	1	4	90	0.00	30.115 
20:45	57.6	57.6	57.6	57	42.5	1	4	90	0.00	30.122 
20:50	57.5	57.5	57.5	57	42.4	0	3	68	0.00	30.122 
20:55	57.3	57.3	57.3	57	42.2	1	4	68	0.00	30.122 
21:00	57.2	57.2	57.2	57	42.1	0	3	135	0.00	30.126 
21:05	56.9	56.9	56.9	58	42.3	0	2	135	0.00	30.126 
21:10	56.7	56.7	56.7	58	42.1	0	2	135	0.00	30.126 
21:15	56.5	56.5	56.5	59	42.3	0	2	135	0.00	30.125 
21:20	56.3	56.3	56.3	59	42.2	0	4	135	0.00	30.125 
21:25	56.0	56.0	56.0	59	41.9	1	3	90	0.00	30.125 
21:30	56.0	56.0	56.0	59	41.9	0	3	90	0.00	30.132 
21:35	55.9	55.9	55.9	59	41.8	1	4	90	0.00	30.132 
21:40	55.7	55.7	55.7	59	41.6	1	4	90	0.00	30.132 
21:45	55.6	55.6	55.6	59	41.5	1	3	90	0.00	30.138 
21:50	55.4	55.4	55.4	58	40.9	1	4	90	0.00	30.138 
21:55	55.3	55.3	55.3	58	40.8	1	2	90	0.00	30.138 
22:00	55.1	55.1	55.1	58	40.6	1	5	90	0.00	30.142 
22:05	55.0	55.0	55.0	58	40.5	1	4	135	0.00	30.142 
22:10	54.8	54.8	54.8	58	40.3	0	3	90	0.00	30.142 
22:15	54.7	54.7	54.7	58	40.2	0	2	90	0.00	30.139 
22:20	54.5	54.5	54.5	58	40.0	1	3	90	0.00	30.139 
22:25	54.4	54.4	54.4	58	39.9	1	4	112	0.00	30.139 
22:30	54.2	54.2	54.2	58	39.7	1	6	112	0.00	30.147 
22:35	54.1	54.1	54.1	58	39.7	1	4	112	0.00	30.147 
22:40	53.9	53.9	53.9	59	39.9	0	4	90	0.00	30.147 
22:45	53.8	53.8	53.8	58	39.4	1	5	112	0.00	30.150 
22:50	53.6	53.6	53.6	58	39.2	1	5	90	0.00	30.150 
22:55	53.5	53.5	53.5	58	39.1	1	4	135	0.00	30.150 
23:00	53.3	53.3	53.3	58	38.9	1	5	112	0.00	30.153 
23:05	53.2	53.2	53.2	58	38.8	1	6	112	0.00	30.153 
23:10	53.1	53.1	53.1	59	39.2	1	4	112	0.00	30.153 
23:15	52.8	52.8	52.8	60	39.3	0	3	90	0.00	30.152 
23:20	52.6	52.6	52.6	61	39.5	1	3	90	0.00	30.152 
23:25	52.5	52.5	52.5	62	39.9	1	5	68	0.00	30.152 
23:30	52.3	52.3	52.3	61	39.3	2	6	90	0.00	30.159 
23:35	52.2	52.2	52.2	62	39.6	2	7	112	0.00	30.159 
23:40	52.2	52.2	52.2	62	39.6	1	5	68	0.00	30.159 
23:45	52.0	52.0	52.0	63	39.8	1	5	112	0.00	30.158 
23:50	51.9	51.9	51.9	63	39.7	1	10	68	0.00	30.158 
23:55	51.7	51.7	51.7	63	39.5	2	10	90	0.00	30.158 

CoCoRaHS
IN-AL-39
A2 Web Hosting
Creative Commons License
GoDaddy
search engine by freefind advanced

loaded 2018-11-21 01:48:05 • last modified 2010-11-18 10:43:29
Privacy PolicyDisclaimer
• wx.awcolley.com is powered by PmWiki v.2002016 •
• all content (unless otherwise noted) © 2018 A W Colley